Time;durP1;ratioP1;P1;durP2;ratioP2;P2;SDS_P1;SDS_P2;PMS_P1;PMS_P2;Temp;Humidity;BMP_temperature;BMP_pressure;BME280_temperature;BME280_humidity;BME280_pressure;Samples;Min_cycle;Max_cycle;Signal;HPM_P1;HPM_P2
2024/01/02 00:01:13;;;;;;;2.20;1.67;;;;;;;6.48;66.78;94720.53;5005727;28;20218;-85
2024/01/02 00:03:41;;;;;;;1.83;1.20;;;;;;;6.43;66.40;94697.22;5008807;28;20226;-87
2024/01/02 00:06:07;;;;;;;2.13;1.60;;;;;;;6.45;66.27;94699.63;5008772;28;20210;-87
2024/01/02 00:08:34;;;;;;;2.03;1.40;;;;;;;6.45;66.25;94690.19;5009131;28;20673;-86
2024/01/02 00:11:00;;;;;;;2.63;1.73;;;;;;;6.43;66.44;94686.22;5008497;28;20229;-86
2024/01/02 00:13:27;;;;;;;2.03;1.30;;;;;;;6.42;66.26;94672.63;5010793;28;20603;-86
2024/01/02 00:15:55;;;;;;;5.13;2.00;;;;;;;6.35;65.85;94656.38;5028651;28;20216;-86
2024/01/02 00:18:21;;;;;;;2.00;1.40;;;;;;;6.36;65.71;94650.31;5009952;28;20207;-86
2024/01/02 00:20:52;;;;;;;4.93;1.60;;;;;;;6.32;65.86;94635.50;5008742;28;20362;-86
2024/01/02 00:23:19;;;;;;;2.23;1.63;;;;;;;6.23;65.86;94625.34;5009593;28;20234;-86
2024/01/02 00:25:45;;;;;;;2.67;1.70;;;;;;;6.19;65.66;94624.09;5009351;28;20205;-87
2024/01/02 00:28:12;;;;;;;2.30;1.63;;;;;;;6.13;65.92;94626.56;5010029;28;20203;-86
2024/01/02 00:30:40;;;;;;;1.93;1.60;;;;;;;6.04;65.58;94607.16;5009389;28;20226;-86
2024/01/02 00:33:06;;;;;;;2.57;1.70;;;;;;;6.04;65.56;94610.50;5003657;28;20968;-86
2024/01/02 00:35:33;;;;;;;5.90;1.50;;;;;;;6.05;65.79;94611.28;5009624;28;20210;-84
2024/01/02 00:38:04;;;;;;;2.70;1.40;;;;;;;6.05;65.70;94603.63;5028515;28;20233;-85
2024/01/02 00:40:31;;;;;;;1.80;1.47;;;;;;;6.05;65.15;94583.19;5028475;28;20218;-86
2024/01/02 00:42:57;;;;;;;2.63;1.57;;;;;;;6.00;64.92;94562.47;5007909;28;20218;-86
2024/01/02 00:45:26;;;;;;;1.20;1.10;;;;;;;5.98;64.95;94554.97;5008809;28;20998;-86
2024/01/02 00:47:52;;;;;;;1.73;1.40;;;;;;;5.96;64.69;94541.59;5009153;28;20631;-87
2024/01/02 00:50:20;;;;;;;1.80;1.40;;;;;;;5.96;64.95;94545.91;5004843;28;20580;-86
2024/01/02 00:52:46;;;;;;;3.07;1.60;;;;;;;5.94;64.56;94542.75;5011124;28;20199;-86
2024/01/02 00:55:15;;;;;;;1.87;1.40;;;;;;;5.85;64.46;94527.44;5013972;28;20206;-85
2024/01/02 00:57:41;;;;;;;1.80;1.30;;;;;;;5.87;64.89;94525.53;5013478;28;20234;-86
2024/01/02 01:00:09;;;;;;;1.40;1.30;;;;;;;5.89;64.56;94512.59;5012712;28;20222;-87
2024/01/02 01:02:36;;;;;;;1.43;1.30;;;;;;;5.91;64.52;94513.22;5013010;28;20227;-86
2024/01/02 01:05:07;;;;;;;1.77;1.23;;;;;;;5.99;64.50;94512.34;5010633;28;20657;-86
2024/01/02 01:07:36;;;;;;;2.60;1.40;;;;;;;5.94;64.04;94484.00;5012896;28;20664;-86
2024/01/02 01:10:05;;;;;;;1.37;1.10;;;;;;;5.89;64.00;94472.53;5011795;28;20219;-86
2024/01/02 01:12:33;;;;;;;2.33;1.07;;;;;;;5.85;64.02;94471.25;5012250;28;20203;-87
2024/01/02 01:15:00;;;;;;;1.13;1.03;;;;;;;5.79;64.11;94466.84;5026470;28;20198;-86
2024/01/02 01:17:26;;;;;;;1.30;1.20;;;;;;;5.83;64.09;94455.31;5032397;28;20206;-86
2024/01/02 01:19:52;;;;;;;1.20;1.10;;;;;;;5.89;63.67;94456.41;5031099;28;20218;-86
2024/01/02 01:22:19;;;;;;;1.73;1.30;;;;;;;5.93;63.83;94452.56;5009248;28;20227;-86
2024/01/02 01:24:45;;;;;;;1.20;1.00;;;;;;;5.97;63.45;94432.53;5011351;28;20233;-86
2024/01/02 01:27:12;;;;;;;1.43;1.17;;;;;;;6.02;63.26;94425.13;5011947;28;20732;-86
2024/01/02 01:29:40;;;;;;;1.13;1.03;;;;;;;6.04;63.37;94413.78;5011876;28;20600;-86
2024/01/02 01:32:07;;;;;;;2.40;1.20;;;;;;;6.00;63.10;94397.22;5012018;28;20704;-86
2024/01/02 01:34:34;;;;;;;1.23;0.97;;;;;;;5.97;62.99;94401.88;5010744;28;20208;-86
2024/01/02 01:37:00;;;;;;;2.13;0.90;;;;;;;5.95;63.04;94402.09;5018909;28;20198;-86
2024/01/02 01:39:27;;;;;;;1.47;1.10;;;;;;;5.94;62.93;94400.50;5009357;28;20214;-86
2024/01/02 01:41:53;;;;;;;2.67;1.10;;;;;;;5.99;63.06;94405.84;5001409;28;20227;-86
2024/01/02 01:44:20;;;;;;;1.93;1.10;;;;;;;6.02;62.53;94405.50;4991976;28;20243;-87
2024/01/02 01:46:48;;;;;;;1.57;1.10;;;;;;;6.09;62.72;94397.91;4991578;28;20204;-87
2024/01/02 01:49:16;;;;;;;1.50;1.07;;;;;;;6.01;62.50;94380.91;4999684;28;20207;-87
2024/01/02 01:51:44;;;;;;;1.10;1.00;;;;;;;5.95;62.42;94376.53;5011085;28;20202;-86
2024/01/02 01:54:12;;;;;;;2.20;1.10;;;;;;;5.99;62.69;94385.41;5009528;28;20226;-86
2024/01/02 01:56:39;;;;;;;1.13;1.00;;;;;;;6.10;62.65;94374.75;5010705;28;20210;-86
2024/01/02 01:59:06;;;;;;;1.17;0.83;;;;;;;6.15;62.31;94376.78;5011865;28;20213;-87
2024/01/02 02:01:34;;;;;;;2.27;1.20;;;;;;;6.19;62.36;94365.19;5010826;28;20226;-86
2024/01/02 02:04:03;;;;;;;1.43;1.10;;;;;;;6.22;61.79;94354.63;5011505;28;20207;-86
2024/01/02 02:06:29;;;;;;;1.50;1.00;;;;;;;6.20;61.71;94346.34;5010072;28;20203;-86
2024/01/02 02:08:58;;;;;;;1.07;0.90;;;;;;;6.19;61.56;94339.66;5011436;28;20211;-87
2024/01/02 02:11:29;;;;;;;0.93;0.90;;;;;;;6.22;61.81;94327.31;5009114;28;20223;-86
2024/01/02 02:13:55;;;;;;;1.00;0.90;;;;;;;6.22;61.46;94317.09;5016429;28;20277;-87
2024/01/02 02:16:22;;;;;;;1.87;1.07;;;;;;;6.21;61.29;94302.72;5022491;28;20286;-86
2024/01/02 02:18:48;;;;;;;1.17;1.00;;;;;;;6.15;61.62;94298.34;5011330;28;20202;-87
2024/01/02 02:21:16;;;;;;;1.27;1.10;;;;;;;6.08;61.39;94289.81;5019848;28;20218;-87
2024/01/02 02:23:44;;;;;;;1.20;1.00;;;;;;;6.07;61.44;94305.31;5031074;28;20225;-86
2024/01/02 02:26:10;;;;;;;1.37;0.90;;;;;;;6.15;61.56;94300.13;5020864;28;20214;-86
2024/01/02 02:28:37;;;;;;;1.43;1.03;;;;;;;6.17;61.19;94278.50;5012906;28;20221;-87
2024/01/02 02:31:04;;;;;;;1.30;0.90;;;;;;;6.18;61.47;94280.09;5013267;28;20223;-87
2024/01/02 02:33:30;;;;;;;0.90;0.90;;;;;;;6.15;61.11;94272.81;5019320;28;20233;-87
2024/01/02 02:35:57;;;;;;;0.70;0.70;;;;;;;6.14;61.37;94275.53;5011360;28;20229;-87
2024/01/02 02:38:23;;;;;;;1.07;0.90;;;;;;;6.12;61.33;94274.94;5011640;28;20202;-85
2024/01/02 02:40:51;;;;;;;1.00;0.90;;;;;;;6.19;61.50;94281.66;5009347;28;20233;-86
2024/01/02 02:43:20;;;;;;;1.70;1.20;;;;;;;6.13;61.36;94277.31;5005981;28;20223;-87
2024/01/02 02:45:47;;;;;;;1.23;1.10;;;;;;;6.10;61.43;94269.19;5011186;28;20253;-86
2024/01/02 02:48:15;;;;;;;1.63;1.00;;;;;;;6.09;61.25;94270.16;5011642;28;20198;-85
2024/01/02 02:50:42;;;;;;;2.20;0.97;;;;;;;6.16;61.08;94273.56;5011376;28;20235;-87
2024/01/02 02:53:08;;;;;;;2.30;0.90;;;;;;;6.13;60.97;94249.19;5010932;28;20860;-87
2024/01/02 02:55:34;;;;;;;1.73;0.90;;;;;;;6.19;61.17;94247.66;5010331;28;20201;-87
2024/01/02 02:58:02;;;;;;;1.40;1.20;;;;;;;6.20;60.85;94244.13;5008929;28;20573;-86
2024/01/02 03:00:29;;;;;;;1.20;0.87;;;;;;;6.18;60.58;94223.88;5010126;28;20257;-86
2024/01/02 03:02:56;;;;;;;0.70;0.70;;;;;;;6.23;60.67;94225.88;5009947;28;20280;-86
2024/01/02 03:05:22;;;;;;;1.50;1.00;;;;;;;6.22;60.42;94206.41;5010254;28;20687;-86
2024/01/02 03:07:49;;;;;;;1.33;0.90;;;;;;;6.27;60.21;94201.53;5010108;28;20618;-86
2024/01/02 03:10:17;;;;;;;1.27;0.93;;;;;;;6.29;60.11;94186.81;5009610;28;20218;-85
2024/01/02 03:12:44;;;;;;;1.03;0.90;;;;;;;6.32;59.88;94180.56;5009794;28;20203;-87
2024/01/02 03:15:13;;;;;;;0.80;0.80;;;;;;;6.31;59.74;94163.63;5006764;28;20688;-86
2024/01/02 03:17:39;;;;;;;1.10;0.93;;;;;;;6.29;59.76;94143.38;5008861;28;20257;-86
2024/01/02 03:20:07;;;;;;;1.03;0.90;;;;;;;6.33;59.44;94149.69;5009806;28;20226;-86
2024/01/02 03:22:34;;;;;;;1.73;1.10;;;;;;;6.32;59.54;94143.00;5010139;28;20234;-86
2024/01/02 03:25:00;;;;;;;1.00;0.90;;;;;;;6.29;59.58;94140.81;5008956;28;20203;-86
2024/01/02 03:27:27;;;;;;;1.47;1.03;;;;;;;6.29;59.84;94143.38;5010213;28;20213;-87
2024/01/02 03:29:54;;;;;;;1.20;1.00;;;;;;;6.30;59.73;94128.84;5008668;28;20229;-86
2024/01/02 03:32:21;;;;;;;0.80;0.80;;;;;;;6.20;59.29;94096.72;5009816;28;20194;-86
2024/01/02 03:34:50;;;;;;;1.67;1.00;;;;;;;6.13;59.25;94090.78;5009000;28;20203;-85
2024/01/02 03:37:16;;;;;;;1.17;0.93;;;;;;;6.11;59.32;94100.41;5010515;28;20211;-87
2024/01/02 03:39:43;;;;;;;2.70;1.10;;;;;;;6.09;59.45;94093.88;5009897;28;20230;-86
2024/01/02 03:42:09;;;;;;;0.87;0.87;;;;;;;6.13;59.43;94084.88;5021981;28;20291;-86
2024/01/02 03:44:38;;;;;;;1.10;1.00;;;;;;;6.09;59.14;94076.78;5024039;28;20190;-86
2024/01/02 03:47:05;;;;;;;0.80;0.80;;;;;;;6.12;59.40;94076.44;5018224;28;20211;-86
2024/01/02 03:49:33;;;;;;;1.00;0.90;;;;;;;6.18;58.99;94072.31;5022146;28;20602;-86
2024/01/02 03:51:59;;;;;;;1.17;1.10;;;;;;;6.15;59.11;94047.97;5024280;28;20198;-86
2024/01/02 03:54:26;;;;;;;1.10;1.00;;;;;;;6.10;58.83;94042.59;5024118;28;20210;-86
2024/01/02 03:56:52;;;;;;;1.37;0.93;;;;;;;6.09;59.21;94045.34;5026553;28;20203;-86
2024/01/02 03:59:19;;;;;;;1.77;0.80;;;;;;;6.12;58.93;94050.09;5025279;28;20424;-86
2024/01/02 04:01:45;;;;;;;1.17;1.00;;;;;;;6.09;59.13;94037.69;5024611;28;20226;-86
2024/01/02 04:04:12;;;;;;;1.10;1.00;;;;;;;6.12;59.19;94047.53;5021269;28;20233;-87
2024/01/02 04:06:40;;;;;;;1.17;1.00;;;;;;;6.03;58.98;94035.88;5019276;28;20210;-86
2024/01/02 04:09:06;;;;;;;1.23;1.10;;;;;;;6.01;59.18;94042.91;5011462;28;20747;-87
2024/01/02 04:11:32;;;;;;;1.07;0.93;;;;;;;6.10;59.73;94052.81;5011186;28;20219;-86
2024/01/02 04:14:00;;;;;;;1.23;0.90;;;;;;;6.14;59.25;94035.38;5011541;28;20199;-87
2024/01/02 04:16:26;;;;;;;0.83;0.83;;;;;;;6.15;58.56;94017.28;5011588;28;20495;-86
2024/01/02 04:18:53;;;;;;;2.10;1.20;;;;;;;6.16;58.48;94012.94;5012849;28;20203;-86
2024/01/02 04:21:19;;;;;;;1.50;1.13;;;;;;;6.18;58.98;94026.31;5016241;28;20239;-86
2024/01/02 04:23:47;;;;;;;2.43;1.10;;;;;;;6.22;58.83;94015.53;5010821;28;20237;-86
2024/01/02 04:26:13;;;;;;;1.20;0.90;;;;;;;6.31;58.72;94007.75;5010367;28;20211;-86
2024/01/02 04:28:40;;;;;;;1.27;0.87;;;;;;;6.37;58.54;94000.09;5010169;28;20194;-86
2024/01/02 04:31:08;;;;;;;0.77;0.70;;;;;;;6.40;58.32;93984.38;5013370;28;20281;-85
2024/01/02 04:33:34;;;;;;;1.03;0.97;;;;;;;6.34;57.94;93958.81;5013066;28;20791;-87
2024/01/02 04:36:01;;;;;;;1.13;1.00;;;;;;;6.38;57.84;93965.88;5011900;28;20228;-86
2024/01/02 04:38:27;;;;;;;1.00;0.90;;;;;;;6.45;58.09;93978.69;5014062;28;20222;-87
2024/01/02 04:40:57;;;;;;;1.03;0.93;;;;;;;6.42;58.11;93967.09;5013507;28;20246;-87
2024/01/02 04:43:24;;;;;;;1.00;0.83;;;;;;;6.38;57.47;93940.31;5013776;28;20259;-86
2024/01/02 04:45:51;;;;;;;0.80;0.80;;;;;;;6.30;57.26;93925.19;5013104;28;20242;-84
2024/01/02 04:48:18;;;;;;;2.40;1.00;;;;;;;6.27;57.42;93917.09;5013902;28;20211;-87
2024/01/02 04:50:44;;;;;;;2.60;0.80;;;;;;;6.24;57.76;93903.72;5009918;28;20234;-86
2024/01/02 04:53:11;;;;;;;1.00;0.90;;;;;;;6.21;57.52;93895.63;5012060;28;20210;-89
2024/01/02 04:55:37;;;;;;;0.70;0.70;;;;;;;6.23;57.68;93889.38;5012068;28;20210;-87
2024/01/02 04:58:08;;;;;;;0.97;0.87;;;;;;;6.30;57.42;93891.94;5012664;28;20195;-87
2024/01/02 05:00:34;;;;;;;1.73;1.33;;;;;;;6.32;57.37;93873.88;5012006;28;20218;-86
2024/01/02 05:03:01;;;;;;;1.40;0.90;;;;;;;6.40;57.36;93882.13;5012612;28;20222;-87
2024/01/02 05:05:28;;;;;;;1.03;0.80;;;;;;;6.40;56.70;93850.69;5012517;28;20217;-86
2024/01/02 05:07:54;;;;;;;0.83;0.83;;;;;;;6.41;56.88;93865.81;5011297;28;20234;-87
2024/01/02 05:10:21;;;;;;;1.10;1.00;;;;;;;6.37;55.92;93810.16;5012359;28;20778;-86
2024/01/02 05:12:51;;;;;;;2.10;1.17;;;;;;;6.40;56.26;93802.91;5013602;28;20199;-87
2024/01/02 05:15:19;;;;;;;1.10;0.80;;;;;;;6.36;55.54;93776.16;5012397;28;20206;-86
2024/01/02 05:17:46;;;;;;;0.80;0.80;;;;;;;6.29;54.75;93718.38;5012762;28;20203;-87
2024/01/02 05:20:12;;;;;;;0.93;0.83;;;;;;;6.27;55.53;93733.13;5012314;28;20242;-87
2024/01/02 05:22:39;;;;;;;0.90;0.80;;;;;;;6.29;55.06;93706.38;5011774;28;20256;-87
2024/01/02 05:25:07;;;;;;;1.40;0.93;;;;;;;6.25;54.94;93697.53;5006537;28;20289;-87
2024/01/02 05:27:34;;;;;;;1.07;0.90;;;;;;;6.27;54.80;93689.69;5011795;28;20699;-88
2024/01/02 05:30:00;;;;;;;1.47;1.10;;;;;;;6.18;55.48;93694.97;5011148;28;20936;-87
2024/01/02 05:32:28;;;;;;;1.30;1.00;;;;;;;6.16;55.23;93694.38;4997241;28;20840;-86
2024/01/02 05:34:55;;;;;;;1.80;0.83;;;;;;;6.17;54.80;93656.84;5004275;28;20203;-86
2024/01/02 05:37:21;;;;;;;1.00;0.90;;;;;;;6.18;55.08;93654.09;4999725;28;20266;-87
2024/01/02 05:39:48;;;;;;;0.70;0.70;;;;;;;6.14;55.00;93642.72;5012027;28;20245;-86
2024/01/02 05:42:14;;;;;;;0.80;0.80;;;;;;;6.18;54.17;93626.00;5010605;28;20209;-87
2024/01/02 05:44:41;;;;;;;0.80;0.80;;;;;;;6.21;54.18;93601.81;5011399;28;20561;-84
2024/01/02 05:47:10;;;;;;;1.00;0.90;;;;;;;6.27;53.70;93585.69;5012341;28;20191;-87
2024/01/02 05:49:38;;;;;;;0.70;0.70;;;;;;;6.42;53.81;93572.69;5021243;28;20229;-87
2024/01/02 05:52:05;;;;;;;0.50;0.50;;;;;;;6.47;53.23;93535.34;5011856;28;20199;-88
2024/01/02 05:54:32;;;;;;;2.20;0.80;;;;;;;6.55;52.65;93506.97;5010960;28;20198;-87
2024/01/02 05:56:58;;;;;;;2.40;0.70;;;;;;;6.63;52.21;93489.84;5010588;28;20213;-86
2024/01/02 05:59:34;;;;;;;0.73;0.73;;;;;;;6.67;52.28;93480.78;5011160;28;20206;-89
2024/01/02 06:02:01;;;;;;;0.70;0.70;;;;;;;6.79;52.12;93476.59;5010174;28;20723;-88
2024/01/02 06:04:27;;;;;;;0.60;0.60;;;;;;;6.79;51.64;93462.03;5009758;28;20708;-87
2024/01/02 06:06:55;;;;;;;0.73;0.67;;;;;;;6.83;51.64;93459.84;5011003;28;20249;-88
2024/01/02 06:09:22;;;;;;;1.53;0.80;;;;;;;6.89;51.97;93464.94;5010730;28;20198;-87
2024/01/02 06:12:02;;;;;;;1.37;0.77;;;;;;;6.96;51.31;93423.94;5010328;28;20199;-87
2024/01/02 06:14:28;;;;;;;1.07;0.90;;;;;;;7.05;51.32;93427.06;5011262;28;20731;-87
2024/01/02 06:16:55;;;;;;;1.10;0.67;;;;;;;7.11;51.83;93444.13;5010174;28;20198;-88
2024/01/02 06:19:21;;;;;;;1.77;0.70;;;;;;;7.14;51.30;93415.56;5008786;28;20213;-89
2024/01/02 06:21:58;;;;;;;;;;;;;;;;;;;;;
2024/01/02 06:24:27;;;;;;;0.70;0.70;;;;;;;7.21;51.26;93411.19;5008690;28;20222;-87
2024/01/02 06:27:09;;;;;;;0.50;0.50;;;;;;;7.25;51.84;93456.63;5010409;28;20238;-88
2024/01/02 06:29:36;;;;;;;0.77;0.67;;;;;;;7.34;52.63;93508.31;5010198;28;20205;-88
2024/01/02 06:32:03;;;;;;;0.60;0.60;;;;;;;7.39;53.58;93559.69;4958515;28;20239;-87
2024/01/02 06:34:30;;;;;;;0.60;0.60;;;;;;;7.48;54.24;93603.75;4989503;28;20199;-88
2024/01/02 06:36:56;;;;;;;0.40;0.40;;;;;;;7.49;54.53;93613.00;4990861;28;20230;-88
2024/01/02 06:39:23;;;;;;;0.50;0.50;;;;;;;7.45;55.18;93645.91;4990404;28;20207;-89
2024/01/02 06:41:50;;;;;;;0.67;0.67;;;;;;;7.44;55.80;93694.75;4989644;28;20209;-88
2024/01/02 06:44:25;;;;;;;0.73;0.73;;;;;;;7.44;55.33;93646.91;4990443;28;20231;-88
2024/01/02 06:46:51;;;;;;;0.60;0.50;;;;;;;7.53;54.92;93639.75;4990136;28;20199;-88
2024/01/02 06:49:18;;;;;;;0.77;0.50;;;;;;;7.54;54.07;93574.75;4990046;28;20203;-88
2024/01/02 06:51:45;;;;;;;0.57;0.57;;;;;;;7.60;53.87;93545.75;4995342;28;20199;-87
2024/01/02 06:54:12;;;;;;;0.53;0.53;;;;;;;7.57;53.87;93541.06;4996106;28;20290;-87
2024/01/02 06:56:38;;;;;;;0.57;0.57;;;;;;;7.60;53.06;93522.72;5006489;28;20614;-87
2024/01/02 06:59:07;;;;;;;0.60;0.60;;;;;;;7.58;52.36;93463.25;5010186;28;20206;-87
2024/01/02 07:01:33;;;;;;;1.13;0.63;;;;;;;7.59;51.95;93428.97;5009956;28;20735;-87
2024/01/02 07:03:59;;;;;;;0.50;0.50;;;;;;;7.51;51.40;93394.16;5009280;28;20230;-88
2024/01/02 07:06:26;;;;;;;0.70;0.70;;;;;;;7.54;51.03;93369.94;5009460;28;20217;-87
2024/01/02 07:08:53;;;;;;;1.77;0.90;;;;;;;7.54;51.20;93367.38;5002464;28;20206;-88
2024/01/02 07:11:20;;;;;;;0.60;0.60;;;;;;;7.50;50.60;93345.75;4999830;28;20219;-88
2024/01/02 07:13:46;;;;;;;0.87;0.67;;;;;;;7.46;50.75;93331.81;5010108;28;20203;-87
2024/01/02 07:16:17;;;;;;;1.53;0.73;;;;;;;7.46;51.11;93339.50;5010694;28;20207;-87
2024/01/02 07:18:43;;;;;;;0.90;0.90;;;;;;;7.46;51.53;93362.53;5001988;28;20195;-87
2024/01/02 07:21:10;;;;;;;0.80;0.80;;;;;;;7.38;51.54;93357.69;5008850;28;20707;-89
2024/01/02 07:23:36;;;;;;;0.87;0.87;;;;;;;7.28;52.00;93378.66;5007078;28;20695;-87
2024/01/02 07:26:03;;;;;;;0.87;0.87;;;;;;;7.15;51.72;93364.16;5009083;28;20230;-87
2024/01/02 07:28:29;;;;;;;1.07;0.97;;;;;;;7.08;51.83;93389.03;5010273;28;20214;-87
2024/01/02 07:30:59;;;;;;;0.80;0.80;;;;;;;7.00;51.86;93358.59;5011569;28;20222;-88
2024/01/02 07:33:27;;;;;;;0.93;0.70;;;;;;;6.93;52.00;93350.97;5027666;28;20703;-88
2024/01/02 07:35:53;;;;;;;0.63;0.63;;;;;;;6.82;51.91;93328.63;5029005;28;20213;-88
2024/01/02 07:38:20;;;;;;;0.60;0.60;;;;;;;6.82;51.71;93345.75;5028616;28;20210;-88
2024/01/02 07:40:46;;;;;;;0.77;0.77;;;;;;;6.82;51.77;93333.75;5007520;28;20727;-87
2024/01/02 07:43:13;;;;;;;0.80;0.80;;;;;;;6.78;51.72;93337.72;5008534;28;20207;-87
2024/01/02 07:45:50;;;;;;;0.80;0.80;;;;;;;6.87;52.09;93348.47;5008751;28;20269;-87
2024/01/02 07:48:15;;;;;;;1.10;1.00;;;;;;;6.91;51.22;93326.63;5008840;28;20847;-88
2024/01/02 07:50:43;;;;;;;1.77;0.90;;;;;;;6.90;51.48;93305.38;5008778;28;20229;-88
2024/01/02 07:53:10;;;;;;;0.80;0.80;;;;;;;6.96;50.93;93290.94;5008713;28;20207;-87
2024/01/02 07:55:36;;;;;;;0.80;0.80;;;;;;;6.99;50.98;93290.53;5002088;28;20203;-88
2024/01/02 07:58:17;;;;;;;1.03;0.93;;;;;;;6.99;50.78;93274.41;5005647;28;20663;-88
2024/01/02 08:00:55;;;;;;;1.13;1.00;;;;;;;7.04;50.53;93277.88;5008382;28;20305;-87
2024/01/02 08:03:22;;;;;;;1.77;1.00;;;;;;;7.07;50.56;93271.56;5007765;28;20206;-87
2024/01/02 08:05:53;;;;;;;1.00;0.80;;;;;;;7.08;50.45;93265.47;5008609;28;20232;-88
2024/01/02 08:08:20;;;;;;;1.27;0.87;;;;;;;7.06;50.73;93259.78;5008349;28;20282;-88
2024/01/02 08:10:46;;;;;;;1.10;0.93;;;;;;;7.06;50.64;93270.00;5008033;28;20218;-87
2024/01/02 08:13:12;;;;;;;1.20;0.90;;;;;;;7.07;50.71;93269.81;5006403;28;20210;-87
2024/01/02 08:15:39;;;;;;;0.83;0.83;;;;;;;7.07;50.78;93267.25;5006991;28;20206;-87
2024/01/02 08:18:10;;;;;;;1.30;0.90;;;;;;;7.14;50.65;93288.41;5007596;28;20203;-88
2024/01/02 08:20:39;;;;;;;1.03;0.90;;;;;;;7.01;50.19;93239.16;5012982;28;20252;-87
2024/01/02 08:23:07;;;;;;;1.07;0.90;;;;;;;6.98;50.47;93263.38;5012527;28;20218;-87
2024/01/02 08:25:34;;;;;;;1.40;1.20;;;;;;;6.98;50.75;93262.59;5008237;28;20747;-88
2024/01/02 08:28:00;;;;;;;1.43;0.80;;;;;;;6.98;50.74;93285.63;5004851;28;20270;-88
2024/01/02 08:30:27;;;;;;;0.80;0.80;;;;;;;6.99;51.35;93289.75;5008207;28;20238;-88
2024/01/02 08:32:53;;;;;;;0.80;0.70;;;;;;;7.04;51.47;93310.38;5026912;28;20198;-88
2024/01/02 08:35:26;;;;;;;1.17;0.70;;;;;;;7.01;51.49;93303.88;5026758;28;20212;-87
2024/01/02 08:37:52;;;;;;;0.97;0.83;;;;;;;7.02;51.65;93310.56;5028176;28;20202;-89
2024/01/02 08:40:22;;;;;;;0.80;0.70;;;;;;;6.98;51.57;93319.66;5027325;28;20230;-88
2024/01/02 08:42:49;;;;;;;0.70;0.70;;;;;;;6.98;51.63;93335.00;4992436;28;20215;-88
2024/01/02 08:45:16;;;;;;;2.77;0.90;;;;;;;6.99;51.78;93320.44;5001920;28;20223;-88
2024/01/02 08:47:48;;;;;;;0.80;0.80;;;;;;;7.01;52.76;93377.28;5007960;28;20243;-87
2024/01/02 08:50:15;;;;;;;0.80;0.80;;;;;;;6.99;52.37;93374.16;5007875;28;20298;-89
2024/01/02 08:52:41;;;;;;;0.80;0.80;;;;;;;6.97;52.42;93360.78;5008174;28;20207;-87
2024/01/02 08:55:08;;;;;;;2.23;0.90;;;;;;;6.98;52.74;93388.72;5007779;28;20221;-87
2024/01/02 08:57:36;;;;;;;1.30;0.90;;;;;;;7.06;52.89;93413.28;5008628;28;20253;-86
2024/01/02 09:00:14;;;;;;;0.97;0.87;;;;;;;7.14;53.57;93430.91;5006162;28;20223;-88
2024/01/02 09:02:42;;;;;;;0.87;0.80;;;;;;;7.19;53.61;93446.41;5007888;28;20308;-88
2024/01/02 09:05:12;;;;;;;1.53;0.80;;;;;;;7.26;53.48;93442.84;5007830;28;20227;-88
2024/01/02 09:08:00;;;;;;;1.10;1.00;;;;;;;7.31;53.46;93460.13;5007819;28;20663;-88
2024/01/02 09:16:53;;;;;;;1.10;0.93;;;;;;;7.39;54.59;93520.50;4993350;28;20482;-87
2024/01/02 09:19:20;;;;;;;0.70;0.70;;;;;;;7.39;55.03;93543.53;5008930;28;20238;-87
2024/01/02 09:21:47;;;;;;;1.00;0.90;;;;;;;7.38;55.75;93568.34;5010531;28;20223;-88
2024/01/02 09:24:45;;;;;;;0.80;0.80;;;;;;;7.47;55.84;93590.16;5011009;28;20250;-88
2024/01/02 09:27:24;;;;;;;0.60;0.60;;;;;;;7.50;56.68;93635.84;4998906;28;20623;-87
2024/01/02 09:29:52;;;;;;;1.20;0.80;;;;;;;7.49;56.64;93646.28;5010780;28;20458;-87
2024/01/02 09:32:21;;;;;;;0.60;0.60;;;;;;;7.54;56.99;93666.94;5017746;28;20207;-87
2024/01/02 09:34:47;;;;;;;1.33;0.70;;;;;;;7.58;57.11;93666.31;5006980;28;20207;-86
2024/01/02 09:37:16;;;;;;;1.63;0.77;;;;;;;7.71;59.18;93788.38;5011381;28;20214;-86
2024/01/02 09:39:49;;;;;;;0.50;0.50;;;;;;;7.78;57.99;93747.38;5011581;28;20226;-86
2024/01/02 09:42:34;;;;;;;0.97;0.70;;;;;;;7.89;57.87;93731.34;5010881;28;20198;-87
2024/01/02 09:45:13;;;;;;;1.50;0.90;;;;;;;7.83;58.05;93721.94;5010369;28;20218;-87
2024/01/02 09:48:03;;;;;;;2.10;0.90;;;;;;;7.82;58.49;93741.66;5010675;28;20206;-87
2024/01/02 09:50:58;;;;;;;1.87;1.37;;;;;;;7.85;59.44;93802.75;5003650;28;20227;-87
2024/01/02 09:54:00;;;;;;;0.80;0.70;;;;;;;7.86;60.51;93836.84;5010794;28;20198;-87
2024/01/02 09:56:38;;;;;;;1.17;0.70;;;;;;;7.96;61.09;93876.41;5010226;28;20210;-87
2024/01/02 09:59:15;;;;;;;0.50;0.50;;;;;;;8.02;62.06;93915.03;5010901;28;20194;-87
2024/01/02 10:01:54;;;;;;;0.50;0.50;;;;;;;8.13;62.52;93958.75;5010220;28;20218;-87
2024/01/02 10:04:48;;;;;;;0.60;0.50;;;;;;;8.26;62.79;93966.41;5006492;28;20660;-88
2024/01/02 10:07:39;;;;;;;0.60;0.50;;;;;;;8.42;62.64;93962.66;5006601;28;20209;-87
2024/01/02 10:10:14;;;;;;;0.50;0.50;;;;;;;8.56;63.34;93974.44;5010212;28;20219;-87
2024/01/02 10:13:01;;;;;;;0.50;0.50;;;;;;;8.66;62.94;93956.81;5010307;28;20668;-87
2024/01/02 10:15:37;;;;;;;0.40;0.40;;;;;;;8.75;63.18;93970.19;5010161;28;20199;-87
2024/01/02 10:18:23;;;;;;;0.53;0.50;;;;;;;8.83;62.96;93953.78;4999455;28;20238;-87
2024/01/02 10:23:49;;;;;;;0.70;0.70;;;;;;;9.06;62.95;93971.22;5008778;28;20752;-87
2024/01/02 10:26:25;;;;;;;0.40;0.40;;;;;;;9.04;62.59;93953.47;5010180;28;20226;-87
2024/01/02 10:28:57;;;;;;;0.40;0.40;;;;;;;9.13;63.33;93970.19;5003570;28;20605;-87
2024/01/02 10:31:29;;;;;;;1.67;1.57;;;;;;;9.17;63.26;93975.69;4990246;28;20246;-87
2024/01/02 10:34:16;;;;;;;0.40;0.40;;;;;;;9.27;63.32;93968.31;4989687;28;20198;-86
2024/01/02 10:36:50;;;;;;;0.90;0.40;;;;;;;9.26;63.11;93964.97;4992970;28;20594;-86
2024/01/02 10:39:29;;;;;;;0.30;0.30;;;;;;;9.32;63.39;93971.06;5002928;28;20602;-87
2024/01/02 10:41:58;;;;;;;0.67;0.50;;;;;;;9.37;64.14;94009.75;4989888;28;20200;-87
2024/01/02 10:44:43;;;;;;;0.50;0.50;;;;;;;9.40;64.20;94000.84;4989892;28;20656;-87
2024/01/02 10:47:17;;;;;;;0.63;0.43;;;;;;;9.37;64.56;94001.25;4989865;28;20747;-87
2024/01/02 10:49:51;;;;;;;0.50;0.50;;;;;;;9.40;64.69;94047.88;4989664;28;20200;-87
2024/01/02 10:52:24;;;;;;;0.40;0.40;;;;;;;9.44;65.03;94040.50;4990169;28;20207;-87
2024/01/02 10:54:57;;;;;;;0.50;0.50;;;;;;;9.50;65.18;94037.13;5006215;28;20207;-87
2024/01/02 10:57:40;;;;;;;0.50;0.50;;;;;;;9.47;65.45;94024.69;5009771;28;20210;-87
2024/01/02 11:00:18;;;;;;;0.40;0.40;;;;;;;9.54;65.58;94046.78;5008876;28;20234;-87
2024/01/02 11:02:58;;;;;;;0.40;0.40;;;;;;;9.55;65.67;94061.22;5001262;28;20422;-86
2024/01/02 11:05:30;;;;;;;0.33;0.33;;;;;;;9.60;65.96;94058.81;5009295;28;20211;-87
2024/01/02 11:08:03;;;;;;;0.40;0.40;;;;;;;9.59;65.96;94057.22;5009432;28;20183;-87
2024/01/02 11:10:49;;;;;;;0.40;0.40;;;;;;;9.59;66.33;94064.94;5007747;28;20298;-86
2024/01/02 11:13:18;;;;;;;0.40;0.40;;;;;;;9.63;66.95;94076.34;4978186;28;20259;-89
2024/01/02 11:15:46;;;;;;;0.40;0.40;;;;;;;9.59;66.96;94093.19;4989678;28;20641;-88
2024/01/02 11:18:17;;;;;;;0.50;0.50;;;;;;;9.60;67.61;94107.63;4989589;28;20195;-87
2024/01/02 11:20:59;;;;;;;0.60;0.60;;;;;;;9.65;68.37;94142.97;4989119;28;20215;-86
2024/01/02 11:23:30;;;;;;;0.40;0.40;;;;;;;9.67;68.57;94159.75;4989058;28;20195;-87
2024/01/02 11:26:40;;;;;;;0.63;0.40;;;;;;;9.63;69.08;94140.59;4993541;28;20309;-85
2024/01/02 11:29:11;;;;;;;0.33;0.33;;;;;;;9.63;68.96;94145.72;4998500;28;20199;-87
2024/01/02 11:31:38;;;;;;;0.43;0.43;;;;;;;9.65;69.08;94143.75;5009071;28;20219;-87
2024/01/02 11:34:26;;;;;;;0.53;0.40;;;;;;;9.69;68.94;94157.75;5008347;28;20293;-86
2024/01/02 11:37:05;;;;;;;0.60;0.60;;;;;;;9.68;69.93;94163.91;5010658;28;20207;-87
2024/01/02 11:39:44;;;;;;;0.40;0.40;;;;;;;9.75;68.82;94127.09;5011313;28;20207;-86
2024/01/02 11:42:22;;;;;;;0.80;0.40;;;;;;;9.79;68.56;94126.50;5005959;28;20202;-86
2024/01/02 11:45:08;;;;;;;0.37;0.37;;;;;;;9.83;68.50;94090.84;5008433;28;20221;-87
2024/01/02 11:47:43;;;;;;;0.37;0.30;;;;;;;9.91;67.89;94081.13;5008646;28;20202;-87
2024/01/02 11:50:17;;;;;;;0.30;0.30;;;;;;;9.94;67.54;94060.16;5008523;28;20218;-86
2024/01/02 11:52:58;;;;;;;0.50;0.50;;;;;;;9.99;66.90;94039.75;5008932;28;20187;-87
2024/01/02 11:55:39;;;;;;;0.40;0.40;;;;;;;10.03;66.79;94007.44;5008841;28;20561;-87
2024/01/02 11:58:13;;;;;;;0.40;0.40;;;;;;;10.09;66.21;93977.53;5006711;28;20194;-86
2024/01/02 12:00:49;;;;;;;1.10;0.60;;;;;;;10.16;65.88;93946.63;5008716;28;20229;-87
2024/01/02 12:03:30;;;;;;;0.40;0.40;;;;;;;10.15;65.51;93940.69;5008434;28;20212;-87
2024/01/02 12:06:04;;;;;;;0.40;0.40;;;;;;;10.17;65.10;93928.41;5009585;28;20304;-86